sensor_id;sensor_type;location;lat;lon;timestamp;P1;durP1;ratioP1;P2;durP2;ratioP2
6791;SDS011;3433;48.730;9.108;2022-08-25T00:02:02;6.00;;;4.57;;
6791;SDS011;3433;48.730;9.108;2022-08-25T00:04:52;4.13;;;3.73;;
6791;SDS011;3433;48.730;9.108;2022-08-25T00:07:39;6.63;;;3.80;;
6791;SDS011;3433;48.730;9.108;2022-08-25T00:10:26;5.43;;;4.50;;
6791;SDS011;3433;48.730;9.108;2022-08-25T00:13:16;4.20;;;3.80;;
6791;SDS011;3433;48.730;9.108;2022-08-25T00:16:03;3.60;;;3.30;;
6791;SDS011;3433;48.730;9.108;2022-08-25T00:18:51;5.30;;;4.03;;
6791;SDS011;3433;48.730;9.108;2022-08-25T00:21:41;4.30;;;3.90;;
6791;SDS011;3433;48.730;9.108;2022-08-25T00:24:29;4.67;;;3.87;;
6791;SDS011;3433;48.730;9.108;2022-08-25T00:27:16;4.37;;;3.97;;
6791;SDS011;3433;48.730;9.108;2022-08-25T00:30:06;5.30;;;4.07;;
6791;SDS011;3433;48.730;9.108;2022-08-25T00:32:54;4.37;;;3.97;;
6791;SDS011;3433;48.730;9.108;2022-08-25T00:35:42;4.20;;;3.90;;
6791;SDS011;3433;48.730;9.108;2022-08-25T00:38:30;4.30;;;3.90;;
6791;SDS011;3433;48.730;9.108;2022-08-25T00:41:19;4.57;;;4.17;;
6791;SDS011;3433;48.730;9.108;2022-08-25T00:44:08;4.10;;;3.70;;
6791;SDS011;3433;48.730;9.108;2022-08-25T00:46:59;5.60;;;4.10;;
6791;SDS011;3433;48.730;9.108;2022-08-25T00:49:49;4.27;;;3.87;;
6791;SDS011;3433;48.730;9.108;2022-08-25T00:52:40;6.23;;;4.10;;
6791;SDS011;3433;48.730;9.108;2022-08-25T00:55:32;4.77;;;4.30;;
6791;SDS011;3433;48.730;9.108;2022-08-25T00:58:23;4.87;;;4.37;;
6791;SDS011;3433;48.730;9.108;2022-08-25T01:01:12;4.53;;;4.17;;
6791;SDS011;3433;48.730;9.108;2022-08-25T01:04:01;6.07;;;4.10;;
6791;SDS011;3433;48.730;9.108;2022-08-25T01:06:49;4.10;;;3.80;;
6791;SDS011;3433;48.730;9.108;2022-08-25T01:09:36;4.10;;;3.70;;
6791;SDS011;3433;48.730;9.108;2022-08-25T01:12:24;4.30;;;3.90;;
6791;SDS011;3433;48.730;9.108;2022-08-25T01:15:12;4.27;;;3.97;;
6791;SDS011;3433;48.730;9.108;2022-08-25T01:18:00;4.43;;;4.03;;
6791;SDS011;3433;48.730;9.108;2022-08-25T01:20:49;4.30;;;3.83;;
6791;SDS011;3433;48.730;9.108;2022-08-25T01:23:38;4.40;;;4.00;;
6791;SDS011;3433;48.730;9.108;2022-08-25T01:26:27;4.30;;;3.90;;
6791;SDS011;3433;48.730;9.108;2022-08-25T01:29:15;4.00;;;3.70;;
6791;SDS011;3433;48.730;9.108;2022-08-25T01:32:10;4.13;;;3.67;;
6791;SDS011;3433;48.730;9.108;2022-08-25T01:34:59;4.70;;;4.30;;
6791;SDS011;3433;48.730;9.108;2022-08-25T01:37:48;4.23;;;3.87;;
6791;SDS011;3433;48.730;9.108;2022-08-25T01:40:36;4.00;;;3.60;;
6791;SDS011;3433;48.730;9.108;2022-08-25T01:43:26;5.33;;;3.90;;
6791;SDS011;3433;48.730;9.108;2022-08-25T01:46:21;4.37;;;3.97;;
6791;SDS011;3433;48.730;9.108;2022-08-25T01:49:09;4.10;;;3.80;;
6791;SDS011;3433;48.730;9.108;2022-08-25T01:51:56;4.13;;;3.83;;
6791;SDS011;3433;48.730;9.108;2022-08-25T01:54:48;4.03;;;3.73;;
6791;SDS011;3433;48.730;9.108;2022-08-25T01:57:35;5.87;;;4.63;;
6791;SDS011;3433;48.730;9.108;2022-08-25T02:00:23;4.43;;;4.03;;
6791;SDS011;3433;48.730;9.108;2022-08-25T02:03:10;3.90;;;3.60;;
6791;SDS011;3433;48.730;9.108;2022-08-25T02:05:59;7.10;;;4.00;;
6791;SDS011;3433;48.730;9.108;2022-08-25T02:08:49;4.73;;;3.60;;
6791;SDS011;3433;48.730;9.108;2022-08-25T02:11:39;4.90;;;4.50;;
6791;SDS011;3433;48.730;9.108;2022-08-25T02:14:28;4.83;;;4.43;;
6791;SDS011;3433;48.730;9.108;2022-08-25T02:17:15;4.23;;;3.80;;
6791;SDS011;3433;48.730;9.108;2022-08-25T02:20:03;4.67;;;4.00;;
6791;SDS011;3433;48.730;9.108;2022-08-25T02:22:52;5.63;;;4.10;;
6791;SDS011;3433;48.730;9.108;2022-08-25T02:25:40;4.70;;;4.30;;
6791;SDS011;3433;48.730;9.108;2022-08-25T02:28:29;7.20;;;3.90;;
6791;SDS011;3433;48.730;9.108;2022-08-25T02:31:17;4.63;;;4.20;;
6791;SDS011;3433;48.730;9.108;2022-08-25T02:34:07;5.17;;;4.20;;
6791;SDS011;3433;48.730;9.108;2022-08-25T02:36:56;4.97;;;3.90;;
6791;SDS011;3433;48.730;9.108;2022-08-25T02:39:43;5.50;;;4.07;;
6791;SDS011;3433;48.730;9.108;2022-08-25T02:42:30;4.10;;;3.80;;
6791;SDS011;3433;48.730;9.108;2022-08-25T02:45:19;4.20;;;3.77;;
6791;SDS011;3433;48.730;9.108;2022-08-25T02:48:06;5.40;;;4.40;;
6791;SDS011;3433;48.730;9.108;2022-08-25T02:50:53;4.37;;;3.97;;
6791;SDS011;3433;48.730;9.108;2022-08-25T02:53:45;5.23;;;3.70;;
6791;SDS011;3433;48.730;9.108;2022-08-25T02:56:32;5.23;;;4.00;;
6791;SDS011;3433;48.730;9.108;2022-08-25T02:59:19;4.50;;;4.03;;
6791;SDS011;3433;48.730;9.108;2022-08-25T03:02:08;4.57;;;3.83;;
6791;SDS011;3433;48.730;9.108;2022-08-25T03:04:55;4.27;;;3.93;;
6791;SDS011;3433;48.730;9.108;2022-08-25T03:07:42;4.53;;;4.20;;
6791;SDS011;3433;48.730;9.108;2022-08-25T03:10:30;4.20;;;3.80;;
6791;SDS011;3433;48.730;9.108;2022-08-25T03:13:17;5.67;;;4.83;;
6791;SDS011;3433;48.730;9.108;2022-08-25T03:16:05;4.90;;;4.40;;
6791;SDS011;3433;48.730;9.108;2022-08-25T03:18:54;5.53;;;5.00;;
6791;SDS011;3433;48.730;9.108;2022-08-25T03:21:42;4.73;;;4.23;;
6791;SDS011;3433;48.730;9.108;2022-08-25T03:24:30;4.60;;;4.20;;
6791;SDS011;3433;48.730;9.108;2022-08-25T03:27:18;6.23;;;4.43;;
6791;SDS011;3433;48.730;9.108;2022-08-25T03:30:05;8.03;;;4.87;;
6791;SDS011;3433;48.730;9.108;2022-08-25T03:32:53;6.20;;;5.60;;
6791;SDS011;3433;48.730;9.108;2022-08-25T03:35:42;5.50;;;5.00;;
6791;SDS011;3433;48.730;9.108;2022-08-25T03:38:29;6.67;;;4.50;;
6791;SDS011;3433;48.730;9.108;2022-08-25T03:41:17;5.67;;;5.13;;
6791;SDS011;3433;48.730;9.108;2022-08-25T03:44:07;5.40;;;4.90;;
6791;SDS011;3433;48.730;9.108;2022-08-25T03:46:55;5.53;;;5.03;;
6791;SDS011;3433;48.730;9.108;2022-08-25T03:49:42;6.13;;;4.63;;
6791;SDS011;3433;48.730;9.108;2022-08-25T03:52:31;5.17;;;4.67;;
6791;SDS011;3433;48.730;9.108;2022-08-25T03:55:18;5.03;;;4.43;;
6791;SDS011;3433;48.730;9.108;2022-08-25T03:58:07;6.23;;;4.80;;
6791;SDS011;3433;48.730;9.108;2022-08-25T04:00:54;6.30;;;4.87;;
6791;SDS011;3433;48.730;9.108;2022-08-25T04:03:44;6.47;;;4.90;;
6791;SDS011;3433;48.730;9.108;2022-08-25T04:06:32;4.43;;;3.30;;
6791;SDS011;3433;48.730;9.108;2022-08-25T04:09:21;4.50;;;3.57;;
6791;SDS011;3433;48.730;9.108;2022-08-25T04:12:08;3.93;;;3.63;;
6791;SDS011;3433;48.730;9.108;2022-08-25T04:14:55;4.40;;;3.67;;
6791;SDS011;3433;48.730;9.108;2022-08-25T04:17:43;6.63;;;4.20;;
6791;SDS011;3433;48.730;9.108;2022-08-25T04:20:30;6.23;;;4.50;;
6791;SDS011;3433;48.730;9.108;2022-08-25T04:23:17;4.80;;;4.10;;
6791;SDS011;3433;48.730;9.108;2022-08-25T04:26:09;5.30;;;4.80;;
6791;SDS011;3433;48.730;9.108;2022-08-25T04:28:57;4.77;;;3.93;;
6791;SDS011;3433;48.730;9.108;2022-08-25T04:31:46;5.50;;;4.60;;
6791;SDS011;3433;48.730;9.108;2022-08-25T04:34:35;7.00;;;5.23;;
6791;SDS011;3433;48.730;9.108;2022-08-25T04:37:22;5.63;;;4.93;;
6791;SDS011;3433;48.730;9.108;2022-08-25T04:40:09;6.03;;;5.03;;
6791;SDS011;3433;48.730;9.108;2022-08-25T04:42:59;7.03;;;5.20;;
6791;SDS011;3433;48.730;9.108;2022-08-25T04:45:46;5.57;;;4.33;;
6791;SDS011;3433;48.730;9.108;2022-08-25T04:48:33;5.97;;;4.53;;
6791;SDS011;3433;48.730;9.108;2022-08-25T04:51:21;5.40;;;4.60;;
6791;SDS011;3433;48.730;9.108;2022-08-25T04:54:11;8.13;;;5.93;;
6791;SDS011;3433;48.730;9.108;2022-08-25T04:57:01;6.10;;;5.50;;
6791;SDS011;3433;48.730;9.108;2022-08-25T04:59:49;7.97;;;6.33;;
6791;SDS011;3433;48.730;9.108;2022-08-25T05:02:37;8.47;;;7.53;;
6791;SDS011;3433;48.730;9.108;2022-08-25T05:05:24;13.30;;;9.57;;
6791;SDS011;3433;48.730;9.108;2022-08-25T05:08:11;11.20;;;8.30;;
6791;SDS011;3433;48.730;9.108;2022-08-25T05:11:03;12.43;;;8.20;;
6791;SDS011;3433;48.730;9.108;2022-08-25T05:13:51;11.07;;;8.53;;
6791;SDS011;3433;48.730;9.108;2022-08-25T05:16:41;10.80;;;8.17;;
6791;SDS011;3433;48.730;9.108;2022-08-25T05:19:29;12.13;;;8.70;;
6791;SDS011;3433;48.730;9.108;2022-08-25T05:22:16;10.93;;;8.63;;
6791;SDS011;3433;48.730;9.108;2022-08-25T05:25:03;16.03;;;9.20;;
6791;SDS011;3433;48.730;9.108;2022-08-25T05:27:51;18.10;;;10.40;;
6791;SDS011;3433;48.730;9.108;2022-08-25T05:30:39;13.43;;;9.60;;
6791;SDS011;3433;48.730;9.108;2022-08-25T05:33:29;14.53;;;9.50;;
6791;SDS011;3433;48.730;9.108;2022-08-25T05:36:17;12.70;;;9.77;;
6791;SDS011;3433;48.730;9.108;2022-08-25T05:39:05;15.50;;;9.73;;
6791;SDS011;3433;48.730;9.108;2022-08-25T05:41:52;15.70;;;10.10;;
6791;SDS011;3433;48.730;9.108;2022-08-25T05:44:40;17.60;;;9.50;;
6791;SDS011;3433;48.730;9.108;2022-08-25T05:47:27;12.03;;;8.03;;
6791;SDS011;3433;48.730;9.108;2022-08-25T05:50:15;9.63;;;6.50;;
6791;SDS011;3433;48.730;9.108;2022-08-25T05:53:03;8.70;;;6.67;;
6791;SDS011;3433;48.730;9.108;2022-08-25T05:55:51;7.70;;;6.03;;
6791;SDS011;3433;48.730;9.108;2022-08-25T05:58:40;10.33;;;7.03;;
6791;SDS011;3433;48.730;9.108;2022-08-25T06:01:28;6.80;;;6.20;;
6791;SDS011;3433;48.730;9.108;2022-08-25T06:04:33;7.27;;;6.57;;
6791;SDS011;3433;48.730;9.108;2022-08-25T06:07:22;8.67;;;7.77;;
6791;SDS011;3433;48.730;9.108;2022-08-25T06:10:09;10.20;;;7.67;;
6791;SDS011;3433;48.730;9.108;2022-08-25T06:12:57;11.37;;;8.17;;
6791;SDS011;3433;48.730;9.108;2022-08-25T06:15:45;8.23;;;7.43;;
6791;SDS011;3433;48.730;9.108;2022-08-25T06:18:32;10.07;;;7.60;;
6791;SDS011;3433;48.730;9.108;2022-08-25T06:21:19;10.20;;;7.40;;
6791;SDS011;3433;48.730;9.108;2022-08-25T06:24:08;11.33;;;7.50;;
6791;SDS011;3433;48.730;9.108;2022-08-25T06:26:56;8.73;;;7.63;;
6791;SDS011;3433;48.730;9.108;2022-08-25T06:29:43;13.83;;;7.77;;
6791;SDS011;3433;48.730;9.108;2022-08-25T06:32:31;9.53;;;7.53;;
6791;SDS011;3433;48.730;9.108;2022-08-25T06:35:20;10.67;;;8.33;;
6791;SDS011;3433;48.730;9.108;2022-08-25T06:38:07;12.20;;;7.70;;
6791;SDS011;3433;48.730;9.108;2022-08-25T06:40:56;10.97;;;7.43;;
6791;SDS011;3433;48.730;9.108;2022-08-25T06:43:43;9.23;;;8.27;;
6791;SDS011;3433;48.730;9.108;2022-08-25T06:46:30;11.60;;;8.63;;
6791;SDS011;3433;48.730;9.108;2022-08-25T06:49:18;8.90;;;7.47;;
6791;SDS011;3433;48.730;9.108;2022-08-25T06:52:05;9.30;;;8.30;;
6791;SDS011;3433;48.730;9.108;2022-08-25T06:54:53;10.97;;;8.63;;
6791;SDS011;3433;48.730;9.108;2022-08-25T06:57:41;11.30;;;8.50;;
6791;SDS011;3433;48.730;9.108;2022-08-25T07:00:29;13.27;;;8.33;;
6791;SDS011;3433;48.730;9.108;2022-08-25T07:03:16;12.37;;;8.60;;
6791;SDS011;3433;48.730;9.108;2022-08-25T07:06:03;8.70;;;7.70;;
6791;SDS011;3433;48.730;9.108;2022-08-25T07:08:51;8.57;;;7.77;;
6791;SDS011;3433;48.730;9.108;2022-08-25T07:11:39;8.10;;;7.30;;
6791;SDS011;3433;48.730;9.108;2022-08-25T07:14:29;9.03;;;7.47;;
6791;SDS011;3433;48.730;9.108;2022-08-25T07:17:16;9.67;;;7.57;;
6791;SDS011;3433;48.730;9.108;2022-08-25T07:20:05;11.00;;;7.70;;
6791;SDS011;3433;48.730;9.108;2022-08-25T07:22:53;9.87;;;8.30;;
6791;SDS011;3433;48.730;9.108;2022-08-25T07:25:40;9.80;;;7.63;;
6791;SDS011;3433;48.730;9.108;2022-08-25T07:28:27;7.47;;;6.73;;
6791;SDS011;3433;48.730;9.108;2022-08-25T07:31:16;9.13;;;7.40;;
6791;SDS011;3433;48.730;9.108;2022-08-25T07:34:03;7.80;;;6.50;;
6791;SDS011;3433;48.730;9.108;2022-08-25T07:37:08;8.30;;;6.80;;
6791;SDS011;3433;48.730;9.108;2022-08-25T07:39:55;7.77;;;6.97;;
6791;SDS011;3433;48.730;9.108;2022-08-25T07:42:44;8.10;;;7.20;;
6791;SDS011;3433;48.730;9.108;2022-08-25T07:45:37;11.00;;;7.30;;
6791;SDS011;3433;48.730;9.108;2022-08-25T07:48:26;10.20;;;6.60;;
6791;SDS011;3433;48.730;9.108;2022-08-25T07:51:13;8.90;;;6.97;;
6791;SDS011;3433;48.730;9.108;2022-08-25T07:54:01;10.30;;;6.67;;
6791;SDS011;3433;48.730;9.108;2022-08-25T07:56:51;7.53;;;6.20;;
6791;SDS011;3433;48.730;9.108;2022-08-25T07:59:38;7.07;;;6.37;;
6791;SDS011;3433;48.730;9.108;2022-08-25T08:02:26;28.33;;;7.43;;
6791;SDS011;3433;48.730;9.108;2022-08-25T08:05:15;7.57;;;6.87;;
6791;SDS011;3433;48.730;9.108;2022-08-25T08:08:03;6.87;;;6.10;;
6791;SDS011;3433;48.730;9.108;2022-08-25T08:10:50;9.20;;;6.50;;
6791;SDS011;3433;48.730;9.108;2022-08-25T08:13:37;8.93;;;7.47;;
6791;SDS011;3433;48.730;9.108;2022-08-25T08:16:25;7.40;;;6.70;;
6791;SDS011;3433;48.730;9.108;2022-08-25T08:19:14;9.13;;;7.57;;
6791;SDS011;3433;48.730;9.108;2022-08-25T08:22:03;6.83;;;6.10;;
6791;SDS011;3433;48.730;9.108;2022-08-25T08:24:51;6.90;;;6.20;;
6791;SDS011;3433;48.730;9.108;2022-08-25T08:27:39;8.80;;;7.30;;
6791;SDS011;3433;48.730;9.108;2022-08-25T08:30:29;7.03;;;6.33;;
6791;SDS011;3433;48.730;9.108;2022-08-25T08:33:16;7.33;;;6.53;;
6791;SDS011;3433;48.730;9.108;2022-08-25T08:36:05;6.93;;;6.23;;
6791;SDS011;3433;48.730;9.108;2022-08-25T08:38:55;7.67;;;5.97;;
6791;SDS011;3433;48.730;9.108;2022-08-25T08:41:45;6.53;;;5.83;;
6791;SDS011;3433;48.730;9.108;2022-08-25T08:48:13;8.50;;;6.30;;
6791;SDS011;3433;48.730;9.108;2022-08-25T08:51:18;8.80;;;6.87;;
6791;SDS011;3433;48.730;9.108;2022-08-25T08:54:12;6.40;;;5.80;;
6791;SDS011;3433;48.730;9.108;2022-08-25T08:57:07;6.80;;;6.10;;
6791;SDS011;3433;48.730;9.108;2022-08-25T09:00:00;6.60;;;6.00;;
6791;SDS011;3433;48.730;9.108;2022-08-25T09:02:49;7.57;;;6.60;;
6791;SDS011;3433;48.730;9.108;2022-08-25T09:05:43;7.03;;;6.33;;
6791;SDS011;3433;48.730;9.108;2022-08-25T09:08:34;9.40;;;5.73;;
6791;SDS011;3433;48.730;9.108;2022-08-25T09:11:27;11.40;;;7.07;;
6791;SDS011;3433;48.730;9.108;2022-08-25T09:14:22;9.87;;;6.53;;
6791;SDS011;3433;48.730;9.108;2022-08-25T09:17:26;7.10;;;6.37;;
6791;SDS011;3433;48.730;9.108;2022-08-25T09:23:53;8.27;;;6.33;;
6791;SDS011;3433;48.730;9.108;2022-08-25T09:26:56;7.50;;;5.60;;
6791;SDS011;3433;48.730;9.108;2022-08-25T09:29:53;6.30;;;5.70;;
6791;SDS011;3433;48.730;9.108;2022-08-25T09:32:46;6.87;;;6.10;;
6791;SDS011;3433;48.730;9.108;2022-08-25T09:35:35;7.80;;;5.90;;
6791;SDS011;3433;48.730;9.108;2022-08-25T09:38:27;6.70;;;6.03;;
6791;SDS011;3433;48.730;9.108;2022-08-25T09:41:33;5.93;;;5.30;;
6791;SDS011;3433;48.730;9.108;2022-08-25T09:44:30;8.60;;;5.47;;
6791;SDS011;3433;48.730;9.108;2022-08-25T09:47:21;6.60;;;5.90;;
6791;SDS011;3433;48.730;9.108;2022-08-25T09:50:13;6.93;;;6.23;;
6791;SDS011;3433;48.730;9.108;2022-08-25T09:53:11;6.57;;;5.87;;
6791;SDS011;3433;48.730;9.108;2022-08-25T09:56:04;7.10;;;6.17;;
6791;SDS011;3433;48.730;9.108;2022-08-25T09:58:55;9.00;;;7.00;;
6791;SDS011;3433;48.730;9.108;2022-08-25T10:02:18;6.83;;;5.60;;
6791;SDS011;3433;48.730;9.108;2022-08-25T10:05:17;6.87;;;6.27;;
6791;SDS011;3433;48.730;9.108;2022-08-25T10:08:10;7.90;;;6.10;;
6791;SDS011;3433;48.730;9.108;2022-08-25T10:11:00;6.83;;;6.00;;
6791;SDS011;3433;48.730;9.108;2022-08-25T10:13:50;7.90;;;6.63;;
6791;SDS011;3433;48.730;9.108;2022-08-25T10:16:48;6.87;;;6.23;;
6791;SDS011;3433;48.730;9.108;2022-08-25T10:19:37;7.33;;;6.00;;
6791;SDS011;3433;48.730;9.108;2022-08-25T10:22:25;6.63;;;6.07;;
6791;SDS011;3433;48.730;9.108;2022-08-25T10:25:17;6.10;;;5.50;;
6791;SDS011;3433;48.730;9.108;2022-08-25T10:28:12;6.60;;;5.43;;
6791;SDS011;3433;48.730;9.108;2022-08-25T10:31:13;4.90;;;4.40;;
6791;SDS011;3433;48.730;9.108;2022-08-25T10:34:11;6.37;;;5.80;;
6791;SDS011;3433;48.730;9.108;2022-08-25T10:37:13;6.47;;;5.70;;
6791;SDS011;3433;48.730;9.108;2022-08-25T10:40:20;6.90;;;5.83;;
6791;SDS011;3433;48.730;9.108;2022-08-25T10:43:13;7.73;;;6.20;;
6791;SDS011;3433;48.730;9.108;2022-08-25T10:46:10;6.30;;;5.60;;
6791;SDS011;3433;48.730;9.108;2022-08-25T10:49:04;6.93;;;5.63;;
6791;SDS011;3433;48.730;9.108;2022-08-25T10:52:01;7.73;;;5.50;;
6791;SDS011;3433;48.730;9.108;2022-08-25T10:54:56;5.23;;;4.50;;
6791;SDS011;3433;48.730;9.108;2022-08-25T10:57:49;4.90;;;4.50;;
6791;SDS011;3433;48.730;9.108;2022-08-25T11:00:42;5.60;;;5.10;;
6791;SDS011;3433;48.730;9.108;2022-08-25T11:03:42;5.60;;;4.60;;
6791;SDS011;3433;48.730;9.108;2022-08-25T11:06:35;6.83;;;5.93;;
6791;SDS011;3433;48.730;9.108;2022-08-25T11:09:27;5.73;;;5.20;;
6791;SDS011;3433;48.730;9.108;2022-08-25T11:12:21;4.73;;;4.13;;
6791;SDS011;3433;48.730;9.108;2022-08-25T11:15:16;4.57;;;3.90;;
6791;SDS011;3433;48.730;9.108;2022-08-25T11:18:08;4.40;;;4.10;;
6791;SDS011;3433;48.730;9.108;2022-08-25T11:21:00;4.53;;;4.13;;
6791;SDS011;3433;48.730;9.108;2022-08-25T11:23:54;6.00;;;4.80;;
6791;SDS011;3433;48.730;9.108;2022-08-25T11:26:51;4.37;;;3.93;;
6791;SDS011;3433;48.730;9.108;2022-08-25T11:29:44;4.87;;;4.43;;
6791;SDS011;3433;48.730;9.108;2022-08-25T11:32:37;8.23;;;4.70;;
6791;SDS011;3433;48.730;9.108;2022-08-25T11:35:30;5.10;;;4.63;;
6791;SDS011;3433;48.730;9.108;2022-08-25T11:38:27;4.53;;;4.13;;
6791;SDS011;3433;48.730;9.108;2022-08-25T11:41:26;4.80;;;4.40;;
6791;SDS011;3433;48.730;9.108;2022-08-25T11:50:53;4.80;;;4.40;;
6791;SDS011;3433;48.730;9.108;2022-08-25T11:53:43;4.97;;;4.17;;
6791;SDS011;3433;48.730;9.108;2022-08-25T11:56:31;5.27;;;4.63;;
6791;SDS011;3433;48.730;9.108;2022-08-25T12:02:48;4.87;;;4.47;;
6791;SDS011;3433;48.730;9.108;2022-08-25T12:05:48;4.93;;;4.20;;
6791;SDS011;3433;48.730;9.108;2022-08-25T12:08:49;5.17;;;4.73;;
6791;SDS011;3433;48.730;9.108;2022-08-25T12:12:04;5.13;;;4.53;;
6791;SDS011;3433;48.730;9.108;2022-08-25T12:15:18;5.20;;;4.70;;
6791;SDS011;3433;48.730;9.108;2022-08-25T12:18:09;4.87;;;4.37;;
6791;SDS011;3433;48.730;9.108;2022-08-25T12:24:17;4.83;;;4.43;;
6791;SDS011;3433;48.730;9.108;2022-08-25T12:27:07;5.70;;;4.60;;
6791;SDS011;3433;48.730;9.108;2022-08-25T12:30:04;4.70;;;4.20;;
6791;SDS011;3433;48.730;9.108;2022-08-25T12:33:03;3.97;;;3.53;;
6791;SDS011;3433;48.730;9.108;2022-08-25T12:35:58;5.50;;;4.00;;
6791;SDS011;3433;48.730;9.108;2022-08-25T12:38:50;4.83;;;4.43;;
6791;SDS011;3433;48.730;9.108;2022-08-25T12:41:41;4.87;;;4.47;;
6791;SDS011;3433;48.730;9.108;2022-08-25T12:44:40;4.20;;;3.90;;
6791;SDS011;3433;48.730;9.108;2022-08-25T12:47:29;3.83;;;3.47;;
6791;SDS011;3433;48.730;9.108;2022-08-25T12:50:27;4.40;;;4.00;;
6791;SDS011;3433;48.730;9.108;2022-08-25T12:53:21;4.03;;;3.73;;
6791;SDS011;3433;48.730;9.108;2022-08-25T12:56:22;4.10;;;3.80;;
6791;SDS011;3433;48.730;9.108;2022-08-25T12:59:15;4.60;;;4.20;;
6791;SDS011;3433;48.730;9.108;2022-08-25T13:02:10;4.20;;;3.90;;
6791;SDS011;3433;48.730;9.108;2022-08-25T13:12:30;4.13;;;3.83;;
6791;SDS011;3433;48.730;9.108;2022-08-25T13:15:27;3.60;;;3.30;;
6791;SDS011;3433;48.730;9.108;2022-08-25T13:18:21;3.87;;;3.57;;
6791;SDS011;3433;48.730;9.108;2022-08-25T13:21:12;4.20;;;3.87;;
6791;SDS011;3433;48.730;9.108;2022-08-25T13:24:04;3.50;;;3.23;;
6791;SDS011;3433;48.730;9.108;2022-08-25T13:26:55;4.33;;;3.77;;
6791;SDS011;3433;48.730;9.108;2022-08-25T13:29:50;4.37;;;3.97;;
6791;SDS011;3433;48.730;9.108;2022-08-25T13:32:38;3.90;;;3.63;;
6791;SDS011;3433;48.730;9.108;2022-08-25T13:35:26;4.47;;;4.17;;
6791;SDS011;3433;48.730;9.108;2022-08-25T13:38:17;4.87;;;3.97;;
6791;SDS011;3433;48.730;9.108;2022-08-25T13:41:04;4.07;;;3.77;;
6791;SDS011;3433;48.730;9.108;2022-08-25T13:43:53;3.50;;;3.30;;
6791;SDS011;3433;48.730;9.108;2022-08-25T13:46:42;3.90;;;3.60;;
6791;SDS011;3433;48.730;9.108;2022-08-25T13:49:31;4.10;;;3.80;;
6791;SDS011;3433;48.730;9.108;2022-08-25T13:52:22;3.90;;;3.10;;
6791;SDS011;3433;48.730;9.108;2022-08-25T13:55:18;4.13;;;3.80;;
6791;SDS011;3433;48.730;9.108;2022-08-25T13:58:10;4.90;;;3.73;;
6791;SDS011;3433;48.730;9.108;2022-08-25T14:01:02;3.73;;;3.43;;
6791;SDS011;3433;48.730;9.108;2022-08-25T14:03:57;3.70;;;3.40;;
6791;SDS011;3433;48.730;9.108;2022-08-25T14:07:12;4.10;;;3.10;;
6791;SDS011;3433;48.730;9.108;2022-08-25T14:10:02;3.93;;;3.47;;
6791;SDS011;3433;48.730;9.108;2022-08-25T14:13:05;6.20;;;3.97;;
6791;SDS011;3433;48.730;9.108;2022-08-25T14:15:55;3.57;;;3.27;;
6791;SDS011;3433;48.730;9.108;2022-08-25T14:18:54;4.00;;;3.60;;
6791;SDS011;3433;48.730;9.108;2022-08-25T14:21:44;3.90;;;3.40;;
6791;SDS011;3433;48.730;9.108;2022-08-25T14:24:33;4.17;;;3.47;;
6791;SDS011;3433;48.730;9.108;2022-08-25T14:27:21;3.93;;;3.37;;
6791;SDS011;3433;48.730;9.108;2022-08-25T14:30:09;4.53;;;3.83;;
6791;SDS011;3433;48.730;9.108;2022-08-25T14:32:57;5.80;;;3.70;;
6791;SDS011;3433;48.730;9.108;2022-08-25T14:35:47;3.83;;;3.60;;
6791;SDS011;3433;48.730;9.108;2022-08-25T14:38:38;8.93;;;3.00;;
6791;SDS011;3433;48.730;9.108;2022-08-25T14:41:25;3.57;;;3.30;;
6791;SDS011;3433;48.730;9.108;2022-08-25T14:44:13;3.83;;;3.50;;
6791;SDS011;3433;48.730;9.108;2022-08-25T14:47:00;4.40;;;4.00;;
6791;SDS011;3433;48.730;9.108;2022-08-25T14:49:48;5.73;;;3.70;;
6791;SDS011;3433;48.730;9.108;2022-08-25T14:52:36;4.00;;;3.70;;
6791;SDS011;3433;48.730;9.108;2022-08-25T14:55:25;4.50;;;3.73;;
6791;SDS011;3433;48.730;9.108;2022-08-25T14:58:12;3.50;;;3.20;;
6791;SDS011;3433;48.730;9.108;2022-08-25T15:00:59;4.03;;;3.73;;
6791;SDS011;3433;48.730;9.108;2022-08-25T15:03:51;4.23;;;3.73;;
6791;SDS011;3433;48.730;9.108;2022-08-25T15:06:40;4.00;;;3.70;;
6791;SDS011;3433;48.730;9.108;2022-08-25T15:09:28;4.10;;;3.50;;
6791;SDS011;3433;48.730;9.108;2022-08-25T15:12:16;4.10;;;3.30;;
6791;SDS011;3433;48.730;9.108;2022-08-25T15:15:04;5.03;;;3.10;;
6791;SDS011;3433;48.730;9.108;2022-08-25T15:17:52;3.27;;;3.07;;
6791;SDS011;3433;48.730;9.108;2022-08-25T15:20:40;6.73;;;3.27;;
6791;SDS011;3433;48.730;9.108;2022-08-25T15:23:27;3.90;;;3.40;;
6791;SDS011;3433;48.730;9.108;2022-08-25T15:26:15;5.43;;;3.10;;
6791;SDS011;3433;48.730;9.108;2022-08-25T15:29:05;3.93;;;3.10;;
6791;SDS011;3433;48.730;9.108;2022-08-25T15:31:52;4.60;;;3.37;;
6791;SDS011;3433;48.730;9.108;2022-08-25T15:34:40;3.63;;;3.33;;
6791;SDS011;3433;48.730;9.108;2022-08-25T15:37:28;6.53;;;3.40;;
6791;SDS011;3433;48.730;9.108;2022-08-25T15:40:15;4.17;;;3.40;;
6791;SDS011;3433;48.730;9.108;2022-08-25T15:43:03;4.03;;;3.70;;
6791;SDS011;3433;48.730;9.108;2022-08-25T15:45:52;3.60;;;3.30;;
6791;SDS011;3433;48.730;9.108;2022-08-25T15:48:40;3.93;;;3.67;;
6791;SDS011;3433;48.730;9.108;2022-08-25T15:51:28;3.43;;;3.23;;
6791;SDS011;3433;48.730;9.108;2022-08-25T15:54:16;3.80;;;3.60;;
6791;SDS011;3433;48.730;9.108;2022-08-25T15:57:05;4.10;;;3.80;;
6791;SDS011;3433;48.730;9.108;2022-08-25T15:59:52;4.60;;;4.30;;
6791;SDS011;3433;48.730;9.108;2022-08-25T16:02:41;4.00;;;3.77;;
6791;SDS011;3433;48.730;9.108;2022-08-25T16:05:29;4.00;;;3.70;;
6791;SDS011;3433;48.730;9.108;2022-08-25T16:08:16;4.03;;;3.77;;
6791;SDS011;3433;48.730;9.108;2022-08-25T16:11:04;4.10;;;3.80;;
6791;SDS011;3433;48.730;9.108;2022-08-25T16:14:00;4.30;;;3.90;;
6791;SDS011;3433;48.730;9.108;2022-08-25T16:16:48;4.20;;;3.90;;
6791;SDS011;3433;48.730;9.108;2022-08-25T16:19:37;3.90;;;3.60;;
6791;SDS011;3433;48.730;9.108;2022-08-25T16:22:24;3.83;;;3.50;;
6791;SDS011;3433;48.730;9.108;2022-08-25T16:25:12;4.30;;;4.00;;
6791;SDS011;3433;48.730;9.108;2022-08-25T16:28:00;4.00;;;3.70;;
6791;SDS011;3433;48.730;9.108;2022-08-25T16:30:48;4.40;;;4.00;;
6791;SDS011;3433;48.730;9.108;2022-08-25T16:33:35;4.23;;;3.93;;
6791;SDS011;3433;48.730;9.108;2022-08-25T16:36:24;4.30;;;3.90;;
6791;SDS011;3433;48.730;9.108;2022-08-25T16:39:12;4.43;;;4.10;;
6791;SDS011;3433;48.730;9.108;2022-08-25T16:41:59;8.37;;;4.10;;
6791;SDS011;3433;48.730;9.108;2022-08-25T16:44:47;4.30;;;4.00;;
6791;SDS011;3433;48.730;9.108;2022-08-25T16:47:35;3.87;;;3.57;;
6791;SDS011;3433;48.730;9.108;2022-08-25T16:50:24;4.80;;;4.40;;
6791;SDS011;3433;48.730;9.108;2022-08-25T16:53:12;4.77;;;4.47;;
6791;SDS011;3433;48.730;9.108;2022-08-25T16:56:17;4.70;;;4.40;;
6791;SDS011;3433;48.730;9.108;2022-08-25T16:59:09;4.63;;;3.43;;
6791;SDS011;3433;48.730;9.108;2022-08-25T17:01:58;4.57;;;4.17;;
6791;SDS011;3433;48.730;9.108;2022-08-25T17:04:46;4.37;;;3.97;;
6791;SDS011;3433;48.730;9.108;2022-08-25T17:07:33;5.17;;;3.77;;
6791;SDS011;3433;48.730;9.108;2022-08-25T17:10:23;4.23;;;3.83;;
6791;SDS011;3433;48.730;9.108;2022-08-25T17:13:12;5.57;;;3.83;;
6791;SDS011;3433;48.730;9.108;2022-08-25T17:16:00;5.40;;;4.13;;
6791;SDS011;3433;48.730;9.108;2022-08-25T17:18:47;4.50;;;4.10;;
6791;SDS011;3433;48.730;9.108;2022-08-25T17:21:35;4.67;;;4.33;;
6791;SDS011;3433;48.730;9.108;2022-08-25T17:24:24;4.83;;;4.40;;
6791;SDS011;3433;48.730;9.108;2022-08-25T17:27:13;4.07;;;3.77;;
6791;SDS011;3433;48.730;9.108;2022-08-25T17:30:03;4.90;;;4.50;;
6791;SDS011;3433;48.730;9.108;2022-08-25T17:32:51;4.70;;;4.30;;
6791;SDS011;3433;48.730;9.108;2022-08-25T17:35:39;4.80;;;4.17;;
6791;SDS011;3433;48.730;9.108;2022-08-25T17:38:27;5.40;;;4.43;;
6791;SDS011;3433;48.730;9.108;2022-08-25T17:41:16;5.43;;;4.73;;
6791;SDS011;3433;48.730;9.108;2022-08-25T17:44:05;4.57;;;4.23;;
6791;SDS011;3433;48.730;9.108;2022-08-25T17:46:52;5.23;;;4.63;;
6791;SDS011;3433;48.730;9.108;2022-08-25T17:49:40;4.70;;;4.23;;
6791;SDS011;3433;48.730;9.108;2022-08-25T17:52:27;4.10;;;3.80;;
6791;SDS011;3433;48.730;9.108;2022-08-25T17:55:15;4.80;;;4.40;;
6791;SDS011;3433;48.730;9.108;2022-08-25T17:58:05;4.20;;;3.90;;
6791;SDS011;3433;48.730;9.108;2022-08-25T18:00:55;5.00;;;4.07;;
6791;SDS011;3433;48.730;9.108;2022-08-25T18:03:43;4.30;;;4.00;;
6791;SDS011;3433;48.730;9.108;2022-08-25T18:06:31;4.60;;;4.20;;